sensor_id;sensor_type;location;lat;lon;timestamp;temperature;humidity
44851;DHT22;30583;48.714;9.386;2023-07-29T00:00:52;18.30;87.00
44851;DHT22;30583;48.714;9.386;2023-07-29T00:03:17;18.50;86.60
44851;DHT22;30583;48.714;9.386;2023-07-29T00:05:43;18.50;86.20
44851;DHT22;30583;48.714;9.386;2023-07-29T00:08:09;18.70;85.90
44851;DHT22;30583;48.714;9.386;2023-07-29T00:10:38;18.70;85.90
44851;DHT22;30583;48.714;9.386;2023-07-29T00:13:05;18.60;85.90
44851;DHT22;30583;48.714;9.386;2023-07-29T00:15:31;18.30;86.90
44851;DHT22;30583;48.714;9.386;2023-07-29T00:17:56;18.40;86.90
44851;DHT22;30583;48.714;9.386;2023-07-29T00:20:22;18.30;87.00
44851;DHT22;30583;48.714;9.386;2023-07-29T00:22:47;18.20;86.90
44851;DHT22;30583;48.714;9.386;2023-07-29T00:25:15;18.10;87.40
44851;DHT22;30583;48.714;9.386;2023-07-29T00:27:42;18.20;87.50
44851;DHT22;30583;48.714;9.386;2023-07-29T00:30:08;18.30;87.30
44851;DHT22;30583;48.714;9.386;2023-07-29T00:32:34;18.10;87.30
44851;DHT22;30583;48.714;9.386;2023-07-29T00:35:00;18.40;86.70
44851;DHT22;30583;48.714;9.386;2023-07-29T00:37:27;18.40;86.40
44851;DHT22;30583;48.714;9.386;2023-07-29T00:39:53;18.50;86.10
44851;DHT22;30583;48.714;9.386;2023-07-29T00:42:18;18.60;85.90
44851;DHT22;30583;48.714;9.386;2023-07-29T00:44:44;18.50;86.10
44851;DHT22;30583;48.714;9.386;2023-07-29T00:47:11;18.40;86.50
44851;DHT22;30583;48.714;9.386;2023-07-29T00:49:37;18.40;86.10
44851;DHT22;30583;48.714;9.386;2023-07-29T00:52:03;18.40;86.50
44851;DHT22;30583;48.714;9.386;2023-07-29T00:54:29;18.50;86.20
44851;DHT22;30583;48.714;9.386;2023-07-29T00:56:54;18.70;85.80
44851;DHT22;30583;48.714;9.386;2023-07-29T00:59:20;18.70;85.70
44851;DHT22;30583;48.714;9.386;2023-07-29T01:01:46;18.80;85.40
44851;DHT22;30583;48.714;9.386;2023-07-29T01:04:11;18.70;85.60
44851;DHT22;30583;48.714;9.386;2023-07-29T01:06:50;18.60;85.80
44851;DHT22;30583;48.714;9.386;2023-07-29T01:12:29;18.80;85.10
44851;DHT22;30583;48.714;9.386;2023-07-29T01:15:16;18.70;85.70
44851;DHT22;30583;48.714;9.386;2023-07-29T01:17:46;18.70;85.60
44851;DHT22;30583;48.714;9.386;2023-07-29T01:20:17;18.40;86.30
44851;DHT22;30583;48.714;9.386;2023-07-29T01:22:45;18.50;86.10
44851;DHT22;30583;48.714;9.386;2023-07-29T01:25:12;18.50;86.20
44851;DHT22;30583;48.714;9.386;2023-07-29T01:27:38;18.40;86.30
44851;DHT22;30583;48.714;9.386;2023-07-29T01:30:05;18.40;86.50
44851;DHT22;30583;48.714;9.386;2023-07-29T01:32:54;18.20;86.70
44851;DHT22;30583;48.714;9.386;2023-07-29T01:35:31;18.20;86.90
44851;DHT22;30583;48.714;9.386;2023-07-29T01:38:04;18.40;86.60
44851;DHT22;30583;48.714;9.386;2023-07-29T01:40:30;18.50;86.20
44851;DHT22;30583;48.714;9.386;2023-07-29T01:42:57;18.60;86.00
44851;DHT22;30583;48.714;9.386;2023-07-29T01:45:25;18.70;85.60
44851;DHT22;30583;48.714;9.386;2023-07-29T01:47:51;18.70;85.50
44851;DHT22;30583;48.714;9.386;2023-07-29T01:50:17;18.60;85.90
44851;DHT22;30583;48.714;9.386;2023-07-29T01:52:42;18.60;86.00
44851;DHT22;30583;48.714;9.386;2023-07-29T01:55:08;18.70;85.70
44851;DHT22;30583;48.714;9.386;2023-07-29T01:57:34;18.70;85.40
44851;DHT22;30583;48.714;9.386;2023-07-29T01:59:59;18.70;85.50
44851;DHT22;30583;48.714;9.386;2023-07-29T02:02:25;18.60;85.80
44851;DHT22;30583;48.714;9.386;2023-07-29T02:04:50;18.60;86.10
44851;DHT22;30583;48.714;9.386;2023-07-29T02:07:21;18.70;85.80
44851;DHT22;30583;48.714;9.386;2023-07-29T02:09:46;18.70;85.70
44851;DHT22;30583;48.714;9.386;2023-07-29T02:12:12;18.70;85.40
44851;DHT22;30583;48.714;9.386;2023-07-29T02:14:37;18.50;85.80
44851;DHT22;30583;48.714;9.386;2023-07-29T02:17:03;18.20;86.50
44851;DHT22;30583;48.714;9.386;2023-07-29T02:19:29;18.40;86.40
44851;DHT22;30583;48.714;9.386;2023-07-29T02:21:54;18.50;86.00
44851;DHT22;30583;48.714;9.386;2023-07-29T02:24:20;18.50;85.90
44851;DHT22;30583;48.714;9.386;2023-07-29T02:26:45;18.50;85.90
44851;DHT22;30583;48.714;9.386;2023-07-29T02:29:11;18.50;86.00
44851;DHT22;30583;48.714;9.386;2023-07-29T02:31:37;18.40;86.10
44851;DHT22;30583;48.714;9.386;2023-07-29T02:34:04;18.30;86.20
44851;DHT22;30583;48.714;9.386;2023-07-29T02:36:29;18.20;86.70
44851;DHT22;30583;48.714;9.386;2023-07-29T02:38:55;18.30;86.60
44851;DHT22;30583;48.714;9.386;2023-07-29T02:41:20;18.60;85.60
44851;DHT22;30583;48.714;9.386;2023-07-29T02:43:50;18.60;85.40
44851;DHT22;30583;48.714;9.386;2023-07-29T02:46:16;18.30;85.90
44851;DHT22;30583;48.714;9.386;2023-07-29T02:48:42;18.30;86.00
44851;DHT22;30583;48.714;9.386;2023-07-29T02:51:08;18.20;86.50
44851;DHT22;30583;48.714;9.386;2023-07-29T02:53:34;18.20;86.50
44851;DHT22;30583;48.714;9.386;2023-07-29T02:56:02;18.30;86.40
44851;DHT22;30583;48.714;9.386;2023-07-29T02:58:28;18.20;86.30
44851;DHT22;30583;48.714;9.386;2023-07-29T03:00:54;18.30;86.00
44851;DHT22;30583;48.714;9.386;2023-07-29T03:03:25;18.30;86.00
44851;DHT22;30583;48.714;9.386;2023-07-29T03:05:58;18.50;85.60
44851;DHT22;30583;48.714;9.386;2023-07-29T03:08:24;18.50;85.40
44851;DHT22;30583;48.714;9.386;2023-07-29T03:10:49;18.30;86.00
44851;DHT22;30583;48.714;9.386;2023-07-29T03:13:15;18.50;85.60
44851;DHT22;30583;48.714;9.386;2023-07-29T03:15:40;18.40;85.70
44851;DHT22;30583;48.714;9.386;2023-07-29T03:18:06;18.50;85.60
44851;DHT22;30583;48.714;9.386;2023-07-29T03:20:31;18.40;85.80
44851;DHT22;30583;48.714;9.386;2023-07-29T03:22:57;18.40;86.00
44851;DHT22;30583;48.714;9.386;2023-07-29T03:25:22;18.40;85.70
44851;DHT22;30583;48.714;9.386;2023-07-29T03:27:48;18.30;85.90
44851;DHT22;30583;48.714;9.386;2023-07-29T03:30:15;18.10;86.40
44851;DHT22;30583;48.714;9.386;2023-07-29T03:32:44;18.10;86.60
44851;DHT22;30583;48.714;9.386;2023-07-29T03:35:10;18.20;86.30
44851;DHT22;30583;48.714;9.386;2023-07-29T03:37:36;18.20;86.40
44851;DHT22;30583;48.714;9.386;2023-07-29T03:40:02;18.20;86.30
44851;DHT22;30583;48.714;9.386;2023-07-29T03:42:28;18.20;86.10
44851;DHT22;30583;48.714;9.386;2023-07-29T03:44:54;18.30;85.70
44851;DHT22;30583;48.714;9.386;2023-07-29T03:47:19;18.30;86.00
44851;DHT22;30583;48.714;9.386;2023-07-29T03:49:45;18.20;86.20
44851;DHT22;30583;48.714;9.386;2023-07-29T03:52:10;18.40;86.00
44851;DHT22;30583;48.714;9.386;2023-07-29T03:54:36;18.30;86.30
44851;DHT22;30583;48.714;9.386;2023-07-29T03:57:01;18.40;86.00
44851;DHT22;30583;48.714;9.386;2023-07-29T03:59:27;18.40;86.00
44851;DHT22;30583;48.714;9.386;2023-07-29T04:01:53;18.30;86.10
44851;DHT22;30583;48.714;9.386;2023-07-29T04:04:19;18.40;85.70
44851;DHT22;30583;48.714;9.386;2023-07-29T04:06:44;18.30;85.90
44851;DHT22;30583;48.714;9.386;2023-07-29T04:09:10;18.30;86.10
44851;DHT22;30583;48.714;9.386;2023-07-29T04:11:35;18.30;86.10
44851;DHT22;30583;48.714;9.386;2023-07-29T04:14:01;18.30;86.10
44851;DHT22;30583;48.714;9.386;2023-07-29T04:16:27;18.20;86.20
44851;DHT22;30583;48.714;9.386;2023-07-29T04:18:54;18.40;85.80
44851;DHT22;30583;48.714;9.386;2023-07-29T04:21:19;18.30;86.10
44851;DHT22;30583;48.714;9.386;2023-07-29T04:23:45;18.30;85.90
44851;DHT22;30583;48.714;9.386;2023-07-29T04:26:10;18.30;86.00
44851;DHT22;30583;48.714;9.386;2023-07-29T04:28:36;18.20;86.00
44851;DHT22;30583;48.714;9.386;2023-07-29T04:31:02;18.10;86.40
44851;DHT22;30583;48.714;9.386;2023-07-29T04:33:29;18.20;86.30
44851;DHT22;30583;48.714;9.386;2023-07-29T04:35:55;18.30;86.00
44851;DHT22;30583;48.714;9.386;2023-07-29T04:38:20;18.40;85.60
44851;DHT22;30583;48.714;9.386;2023-07-29T04:40:46;18.40;85.70
44851;DHT22;30583;48.714;9.386;2023-07-29T04:43:13;18.40;85.70
44851;DHT22;30583;48.714;9.386;2023-07-29T04:45:43;18.50;85.40
44851;DHT22;30583;48.714;9.386;2023-07-29T04:48:09;18.50;85.60
44851;DHT22;30583;48.714;9.386;2023-07-29T04:50:34;18.50;85.80
44851;DHT22;30583;48.714;9.386;2023-07-29T04:53:00;18.50;85.90
44851;DHT22;30583;48.714;9.386;2023-07-29T04:55:25;18.50;85.60
44851;DHT22;30583;48.714;9.386;2023-07-29T04:57:51;18.40;86.20
44851;DHT22;30583;48.714;9.386;2023-07-29T05:00:17;18.20;87.30
44851;DHT22;30583;48.714;9.386;2023-07-29T05:02:43;18.20;87.10
44851;DHT22;30583;48.714;9.386;2023-07-29T05:05:08;18.20;87.80
44851;DHT22;30583;48.714;9.386;2023-07-29T05:07:34;18.30;87.80
44851;DHT22;30583;48.714;9.386;2023-07-29T05:09:59;18.60;87.10
44851;DHT22;30583;48.714;9.386;2023-07-29T05:12:25;18.50;87.10
44851;DHT22;30583;48.714;9.386;2023-07-29T05:14:51;18.40;87.10
44851;DHT22;30583;48.714;9.386;2023-07-29T05:17:16;18.20;88.10
44851;DHT22;30583;48.714;9.386;2023-07-29T05:19:42;18.40;87.70
44851;DHT22;30583;48.714;9.386;2023-07-29T05:22:07;18.20;87.90
44851;DHT22;30583;48.714;9.386;2023-07-29T05:24:33;18.20;88.40
44851;DHT22;30583;48.714;9.386;2023-07-29T05:26:58;18.20;88.50
44851;DHT22;30583;48.714;9.386;2023-07-29T05:29:24;18.20;88.30
44851;DHT22;30583;48.714;9.386;2023-07-29T05:31:50;18.10;88.70
44851;DHT22;30583;48.714;9.386;2023-07-29T05:34:15;18.20;88.80
44851;DHT22;30583;48.714;9.386;2023-07-29T05:36:41;18.30;88.80
44851;DHT22;30583;48.714;9.386;2023-07-29T05:39:06;18.20;88.70
44851;DHT22;30583;48.714;9.386;2023-07-29T05:41:32;18.40;88.40
44851;DHT22;30583;48.714;9.386;2023-07-29T05:43:58;18.40;88.20
44851;DHT22;30583;48.714;9.386;2023-07-29T05:46:25;18.20;88.90
44851;DHT22;30583;48.714;9.386;2023-07-29T05:48:50;18.20;89.30
44851;DHT22;30583;48.714;9.386;2023-07-29T05:51:16;18.20;89.10
44851;DHT22;30583;48.714;9.386;2023-07-29T05:53:41;18.20;89.60
44851;DHT22;30583;48.714;9.386;2023-07-29T05:56:07;18.40;89.10
44851;DHT22;30583;48.714;9.386;2023-07-29T05:58:33;18.60;89.00
44851;DHT22;30583;48.714;9.386;2023-07-29T06:00:58;18.60;88.70
44851;DHT22;30583;48.714;9.386;2023-07-29T06:03:24;18.60;88.70
44851;DHT22;30583;48.714;9.386;2023-07-29T06:05:49;18.70;88.70
44851;DHT22;30583;48.714;9.386;2023-07-29T06:08:15;18.50;88.90
44851;DHT22;30583;48.714;9.386;2023-07-29T06:10:41;18.50;89.50
44851;DHT22;30583;48.714;9.386;2023-07-29T06:13:06;18.40;89.80
44851;DHT22;30583;48.714;9.386;2023-07-29T06:15:32;18.40;89.70
44851;DHT22;30583;48.714;9.386;2023-07-29T06:17:58;18.30;89.80
44851;DHT22;30583;48.714;9.386;2023-07-29T06:20:23;18.10;89.80
44851;DHT22;30583;48.714;9.386;2023-07-29T06:22:49;18.10;90.10
44851;DHT22;30583;48.714;9.386;2023-07-29T06:25:14;18.20;90.10
44851;DHT22;30583;48.714;9.386;2023-07-29T06:27:40;18.40;89.90
44851;DHT22;30583;48.714;9.386;2023-07-29T06:30:06;18.60;89.60
44851;DHT22;30583;48.714;9.386;2023-07-29T06:32:32;18.80;88.90
44851;DHT22;30583;48.714;9.386;2023-07-29T06:34:57;18.70;89.10
44851;DHT22;30583;48.714;9.386;2023-07-29T06:37:23;18.70;89.60
44851;DHT22;30583;48.714;9.386;2023-07-29T06:39:48;18.90;89.30
44851;DHT22;30583;48.714;9.386;2023-07-29T06:42:14;19.20;88.70
44851;DHT22;30583;48.714;9.386;2023-07-29T06:44:40;19.30;88.10
44851;DHT22;30583;48.714;9.386;2023-07-29T06:47:05;19.50;87.70
44851;DHT22;30583;48.714;9.386;2023-07-29T06:49:31;19.50;87.80
44851;DHT22;30583;48.714;9.386;2023-07-29T06:51:57;19.50;87.70
44851;DHT22;30583;48.714;9.386;2023-07-29T06:54:26;19.40;87.30
44851;DHT22;30583;48.714;9.386;2023-07-29T06:56:52;19.30;87.00
44851;DHT22;30583;48.714;9.386;2023-07-29T06:59:17;19.40;87.10
44851;DHT22;30583;48.714;9.386;2023-07-29T07:01:43;19.40;87.10
44851;DHT22;30583;48.714;9.386;2023-07-29T07:04:09;19.20;87.20
44851;DHT22;30583;48.714;9.386;2023-07-29T07:06:34;19.20;87.20
44851;DHT22;30583;48.714;9.386;2023-07-29T07:09:00;19.40;87.20
44851;DHT22;30583;48.714;9.386;2023-07-29T07:11:26;19.50;86.60
44851;DHT22;30583;48.714;9.386;2023-07-29T07:13:51;19.50;86.20
44851;DHT22;30583;48.714;9.386;2023-07-29T07:16:17;19.10;88.10
44851;DHT22;30583;48.714;9.386;2023-07-29T07:18:43;19.10;88.80
44851;DHT22;30583;48.714;9.386;2023-07-29T07:21:08;19.10;88.10
44851;DHT22;30583;48.714;9.386;2023-07-29T07:23:34;19.00;88.10
44851;DHT22;30583;48.714;9.386;2023-07-29T07:26:00;18.90;88.50
44851;DHT22;30583;48.714;9.386;2023-07-29T07:28:25;19.10;88.20
44851;DHT22;30583;48.714;9.386;2023-07-29T07:30:51;19.10;87.80
44851;DHT22;30583;48.714;9.386;2023-07-29T07:33:17;19.10;88.00
44851;DHT22;30583;48.714;9.386;2023-07-29T07:35:42;19.00;87.60
44851;DHT22;30583;48.714;9.386;2023-07-29T07:38:08;19.10;87.10
44851;DHT22;30583;48.714;9.386;2023-07-29T07:40:35;19.00;86.70
44851;DHT22;30583;48.714;9.386;2023-07-29T07:43:01;19.10;86.30
44851;DHT22;30583;48.714;9.386;2023-07-29T07:45:27;19.00;85.70
44851;DHT22;30583;48.714;9.386;2023-07-29T07:47:53;19.30;85.70
44851;DHT22;30583;48.714;9.386;2023-07-29T07:50:19;19.40;84.80
44851;DHT22;30583;48.714;9.386;2023-07-29T07:52:45;19.40;85.30
44851;DHT22;30583;48.714;9.386;2023-07-29T07:55:10;19.50;86.20
44851;DHT22;30583;48.714;9.386;2023-07-29T07:57:36;19.40;86.70
44851;DHT22;30583;48.714;9.386;2023-07-29T08:00:02;19.40;86.00
44851;DHT22;30583;48.714;9.386;2023-07-29T08:02:27;19.50;85.10
44851;DHT22;30583;48.714;9.386;2023-07-29T08:04:53;19.60;84.60
44851;DHT22;30583;48.714;9.386;2023-07-29T08:07:18;19.50;85.30
44851;DHT22;30583;48.714;9.386;2023-07-29T08:09:44;19.40;86.00
44851;DHT22;30583;48.714;9.386;2023-07-29T08:12:09;19.20;86.20
44851;DHT22;30583;48.714;9.386;2023-07-29T08:14:35;19.30;86.20
44851;DHT22;30583;48.714;9.386;2023-07-29T08:17:00;19.50;85.20
44851;DHT22;30583;48.714;9.386;2023-07-29T08:19:27;21.70;74.00
44851;DHT22;30583;48.714;9.386;2023-07-29T08:21:52;22.10;72.30
44851;DHT22;30583;48.714;9.386;2023-07-29T08:24:18;22.20;72.20
44851;DHT22;30583;48.714;9.386;2023-07-29T08:26:44;22.40;72.00
44851;DHT22;30583;48.714;9.386;2023-07-29T08:29:09;22.10;74.90
44851;DHT22;30583;48.714;9.386;2023-07-29T08:31:35;21.50;76.50
44851;DHT22;30583;48.714;9.386;2023-07-29T08:34:00;21.40;76.50
44851;DHT22;30583;48.714;9.386;2023-07-29T08:36:26;22.40;73.20
44851;DHT22;30583;48.714;9.386;2023-07-29T08:38:52;22.50;72.70
44851;DHT22;30583;48.714;9.386;2023-07-29T08:44:23;22.20;75.30
44851;DHT22;30583;48.714;9.386;2023-07-29T08:46:52;22.60;73.70
44851;DHT22;30583;48.714;9.386;2023-07-29T08:49:19;22.00;76.70
44851;DHT22;30583;48.714;9.386;2023-07-29T08:51:49;22.00;77.30
44851;DHT22;30583;48.714;9.386;2023-07-29T08:54:15;21.60;78.80
44851;DHT22;30583;48.714;9.386;2023-07-29T08:56:41;22.20;77.50
44851;DHT22;30583;48.714;9.386;2023-07-29T08:59:08;21.60;79.50
44851;DHT22;30583;48.714;9.386;2023-07-29T09:01:34;21.70;79.70
44851;DHT22;30583;48.714;9.386;2023-07-29T09:04:00;21.50;81.00
44851;DHT22;30583;48.714;9.386;2023-07-29T09:06:26;21.20;82.10
44851;DHT22;30583;48.714;9.386;2023-07-29T09:08:54;21.10;82.30
44851;DHT22;30583;48.714;9.386;2023-07-29T09:11:20;21.20;83.20
44851;DHT22;30583;48.714;9.386;2023-07-29T09:13:46;21.90;81.70
44851;DHT22;30583;48.714;9.386;2023-07-29T09:16:11;21.70;80.70
44851;DHT22;30583;48.714;9.386;2023-07-29T09:18:37;21.50;81.80
44851;DHT22;30583;48.714;9.386;2023-07-29T09:21:03;21.70;81.20
44851;DHT22;30583;48.714;9.386;2023-07-29T09:23:38;21.70;81.40
44851;DHT22;30583;48.714;9.386;2023-07-29T09:26:05;22.00;81.80
44851;DHT22;30583;48.714;9.386;2023-07-29T09:28:36;22.10;81.20
44851;DHT22;30583;48.714;9.386;2023-07-29T09:31:02;22.20;80.80
44851;DHT22;30583;48.714;9.386;2023-07-29T09:33:29;22.50;81.00
44851;DHT22;30583;48.714;9.386;2023-07-29T09:35:57;22.20;80.50
44851;DHT22;30583;48.714;9.386;2023-07-29T09:38:29;22.20;80.30
44851;DHT22;30583;48.714;9.386;2023-07-29T09:40:56;22.20;79.60
44851;DHT22;30583;48.714;9.386;2023-07-29T09:43:32;22.10;79.50
44851;DHT22;30583;48.714;9.386;2023-07-29T09:46:05;22.00;79.70
44851;DHT22;30583;48.714;9.386;2023-07-29T09:48:36;22.10;80.10
44851;DHT22;30583;48.714;9.386;2023-07-29T09:51:13;22.20;80.00
44851;DHT22;30583;48.714;9.386;2023-07-29T09:53:49;22.50;79.50
44851;DHT22;30583;48.714;9.386;2023-07-29T09:56:15;22.70;80.30
44851;DHT22;30583;48.714;9.386;2023-07-29T09:58:46;22.70;78.80
44851;DHT22;30583;48.714;9.386;2023-07-29T10:01:13;23.30;77.40
44851;DHT22;30583;48.714;9.386;2023-07-29T10:03:39;23.40;76.00
44851;DHT22;30583;48.714;9.386;2023-07-29T10:06:06;23.20;75.50
44851;DHT22;30583;48.714;9.386;2023-07-29T10:08:33;23.10;75.50
44851;DHT22;30583;48.714;9.386;2023-07-29T10:11:05;23.10;75.70
44851;DHT22;30583;48.714;9.386;2023-07-29T10:13:32;23.10;75.30
44851;DHT22;30583;48.714;9.386;2023-07-29T10:15:57;23.00;75.30
44851;DHT22;30583;48.714;9.386;2023-07-29T10:18:24;23.10;75.60
44851;DHT22;30583;48.714;9.386;2023-07-29T10:20:51;23.30;75.20
44851;DHT22;30583;48.714;9.386;2023-07-29T10:23:18;23.50;74.30
44851;DHT22;30583;48.714;9.386;2023-07-29T10:25:55;23.90;73.00
44851;DHT22;30583;48.714;9.386;2023-07-29T10:28:25;24.10;72.60
44851;DHT22;30583;48.714;9.386;2023-07-29T10:30:51;24.10;73.10
44851;DHT22;30583;48.714;9.386;2023-07-29T10:33:17;23.80;71.70
44851;DHT22;30583;48.714;9.386;2023-07-29T10:35:43;24.10;71.30
44851;DHT22;30583;48.714;9.386;2023-07-29T10:38:09;24.30;71.70
44851;DHT22;30583;48.714;9.386;2023-07-29T10:40:54;24.10;71.00
44851;DHT22;30583;48.714;9.386;2023-07-29T10:43:42;24.40;71.50
44851;DHT22;30583;48.714;9.386;2023-07-29T10:46:18;25.00;70.10
44851;DHT22;30583;48.714;9.386;2023-07-29T10:51:35;25.00;69.60
44851;DHT22;30583;48.714;9.386;2023-07-29T10:54:19;24.90;67.90
44851;DHT22;30583;48.714;9.386;2023-07-29T10:56:49;24.40;68.90
44851;DHT22;30583;48.714;9.386;2023-07-29T11:01:51;24.20;66.50
44851;DHT22;30583;48.714;9.386;2023-07-29T11:12:41;24.60;63.40
44851;DHT22;30583;48.714;9.386;2023-07-29T11:18:00;24.80;63.40
44851;DHT22;30583;48.714;9.386;2023-07-29T11:20:30;24.90;61.80
44851;DHT22;30583;48.714;9.386;2023-07-29T11:22:58;24.80;61.40
44851;DHT22;30583;48.714;9.386;2023-07-29T11:25:26;24.90;61.90
44851;DHT22;30583;48.714;9.386;2023-07-29T11:27:53;24.80;57.80
44851;DHT22;30583;48.714;9.386;2023-07-29T11:30:19;24.80;61.20
44851;DHT22;30583;48.714;9.386;2023-07-29T11:32:46;24.70;62.50
44851;DHT22;30583;48.714;9.386;2023-07-29T11:35:14;24.70;63.40
44851;DHT22;30583;48.714;9.386;2023-07-29T11:37:42;24.50;64.00
44851;DHT22;30583;48.714;9.386;2023-07-29T11:40:08;24.40;64.90
44851;DHT22;30583;48.714;9.386;2023-07-29T11:42:36;24.40;63.00
44851;DHT22;30583;48.714;9.386;2023-07-29T11:45:05;24.30;65.80
44851;DHT22;30583;48.714;9.386;2023-07-29T11:47:34;24.50;64.50
44851;DHT22;30583;48.714;9.386;2023-07-29T11:50:03;24.50;65.20
44851;DHT22;30583;48.714;9.386;2023-07-29T11:52:29;24.70;65.00
44851;DHT22;30583;48.714;9.386;2023-07-29T11:54:56;24.80;65.60
44851;DHT22;30583;48.714;9.386;2023-07-29T11:57:23;24.90;64.70
44851;DHT22;30583;48.714;9.386;2023-07-29T11:59:49;24.90;64.50
44851;DHT22;30583;48.714;9.386;2023-07-29T12:02:16;25.10;64.00
44851;DHT22;30583;48.714;9.386;2023-07-29T12:04:43;25.70;62.00
44851;DHT22;30583;48.714;9.386;2023-07-29T12:07:10;26.20;60.40
44851;DHT22;30583;48.714;9.386;2023-07-29T12:09:36;26.20;60.20
44851;DHT22;30583;48.714;9.386;2023-07-29T12:12:04;26.20;58.60
44851;DHT22;30583;48.714;9.386;2023-07-29T12:14:30;26.20;56.60
44851;DHT22;30583;48.714;9.386;2023-07-29T12:16:55;26.40;55.90
44851;DHT22;30583;48.714;9.386;2023-07-29T12:19:21;26.40;58.80
44851;DHT22;30583;48.714;9.386;2023-07-29T12:21:50;26.60;56.60
44851;DHT22;30583;48.714;9.386;2023-07-29T12:24:16;26.50;51.60
44851;DHT22;30583;48.714;9.386;2023-07-29T12:26:42;26.90;52.70
44851;DHT22;30583;48.714;9.386;2023-07-29T12:29:16;27.10;50.60
44851;DHT22;30583;48.714;9.386;2023-07-29T12:31:42;27.30;51.40
44851;DHT22;30583;48.714;9.386;2023-07-29T12:34:08;27.60;49.10
44851;DHT22;30583;48.714;9.386;2023-07-29T12:36:45;28.10;48.30
44851;DHT22;30583;48.714;9.386;2023-07-29T12:39:23;27.70;45.40
44851;DHT22;30583;48.714;9.386;2023-07-29T12:41:50;27.70;46.70
44851;DHT22;30583;48.714;9.386;2023-07-29T12:44:16;28.30;45.20
44851;DHT22;30583;48.714;9.386;2023-07-29T12:46:42;28.30;45.40
44851;DHT22;30583;48.714;9.386;2023-07-29T12:49:08;28.30;44.10
44851;DHT22;30583;48.714;9.386;2023-07-29T12:51:33;28.00;45.40
44851;DHT22;30583;48.714;9.386;2023-07-29T12:54:00;27.70;46.00
44851;DHT22;30583;48.714;9.386;2023-07-29T12:56:26;27.60;46.40
44851;DHT22;30583;48.714;9.386;2023-07-29T12:58:52;27.70;45.90
44851;DHT22;30583;48.714;9.386;2023-07-29T13:01:17;27.70;46.50
44851;DHT22;30583;48.714;9.386;2023-07-29T13:03:44;28.10;46.50
44851;DHT22;30583;48.714;9.386;2023-07-29T13:06:10;28.00;45.60
44851;DHT22;30583;48.714;9.386;2023-07-29T13:08:35;27.30;46.50
44851;DHT22;30583;48.714;9.386;2023-07-29T13:11:01;27.30;47.10
44851;DHT22;30583;48.714;9.386;2023-07-29T13:13:27;27.40;47.20
44851;DHT22;30583;48.714;9.386;2023-07-29T13:15:52;27.10;48.40
44851;DHT22;30583;48.714;9.386;2023-07-29T13:18:18;27.60;47.40
44851;DHT22;30583;48.714;9.386;2023-07-29T13:20:44;27.70;46.80
44851;DHT22;30583;48.714;9.386;2023-07-29T13:23:09;27.50;47.20
44851;DHT22;30583;48.714;9.386;2023-07-29T13:25:35;27.00;48.40
44851;DHT22;30583;48.714;9.386;2023-07-29T13:28:00;27.70;48.00
44851;DHT22;30583;48.714;9.386;2023-07-29T13:30:26;27.60;47.30
44851;DHT22;30583;48.714;9.386;2023-07-29T13:32:51;27.60;47.80
44851;DHT22;30583;48.714;9.386;2023-07-29T13:35:17;27.20;47.00
44851;DHT22;30583;48.714;9.386;2023-07-29T13:37:43;27.20;47.60
44851;DHT22;30583;48.714;9.386;2023-07-29T13:40:08;27.40;47.10
44851;DHT22;30583;48.714;9.386;2023-07-29T13:42:34;27.20;47.70
44851;DHT22;30583;48.714;9.386;2023-07-29T13:45:00;27.00;47.90
44851;DHT22;30583;48.714;9.386;2023-07-29T13:47:25;27.20;48.50
44851;DHT22;30583;48.714;9.386;2023-07-29T13:49:51;27.40;46.80
44851;DHT22;30583;48.714;9.386;2023-07-29T13:52:16;27.30;47.70
44851;DHT22;30583;48.714;9.386;2023-07-29T13:54:42;27.40;47.10
44851;DHT22;30583;48.714;9.386;2023-07-29T13:57:07;27.70;46.90
44851;DHT22;30583;48.714;9.386;2023-07-29T13:59:35;27.70;46.30
44851;DHT22;30583;48.714;9.386;2023-07-29T14:02:04;28.10;46.30
44851;DHT22;30583;48.714;9.386;2023-07-29T14:04:30;27.80;46.20
44851;DHT22;30583;48.714;9.386;2023-07-29T14:06:56;27.50;46.10
44851;DHT22;30583;48.714;9.386;2023-07-29T14:09:21;27.30;46.10
44851;DHT22;30583;48.714;9.386;2023-07-29T14:11:47;27.30;46.00
44851;DHT22;30583;48.714;9.386;2023-07-29T14:14:12;27.40;45.50
44851;DHT22;30583;48.714;9.386;2023-07-29T14:16:38;27.70;46.20
44851;DHT22;30583;48.714;9.386;2023-07-29T14:19:04;28.10;46.30
44851;DHT22;30583;48.714;9.386;2023-07-29T14:21:30;27.80;45.60
44851;DHT22;30583;48.714;9.386;2023-07-29T14:23:55;27.60;46.30
44851;DHT22;30583;48.714;9.386;2023-07-29T14:26:21;27.70;45.80
44851;DHT22;30583;48.714;9.386;2023-07-29T14:28:46;27.00;47.20
44851;DHT22;30583;48.714;9.386;2023-07-29T14:31:12;27.50;46.60
44851;DHT22;30583;48.714;9.386;2023-07-29T14:33:38;28.20;45.40
44851;DHT22;30583;48.714;9.386;2023-07-29T14:36:04;28.00;45.90
44851;DHT22;30583;48.714;9.386;2023-07-29T14:38:30;28.40;44.90
44851;DHT22;30583;48.714;9.386;2023-07-29T14:40:55;28.20;45.60
44851;DHT22;30583;48.714;9.386;2023-07-29T14:43:22;28.70;45.30
44851;DHT22;30583;48.714;9.386;2023-07-29T14:45:48;28.40;44.80
44851;DHT22;30583;48.714;9.386;2023-07-29T14:48:14;27.70;45.20
44851;DHT22;30583;48.714;9.386;2023-07-29T14:50:39;27.80;45.20
44851;DHT22;30583;48.714;9.386;2023-07-29T14:53:05;27.70;46.20
44851;DHT22;30583;48.714;9.386;2023-07-29T14:55:31;28.10;45.20
44851;DHT22;30583;48.714;9.386;2023-07-29T14:57:56;27.20;46.00
44851;DHT22;30583;48.714;9.386;2023-07-29T15:00:22;26.80;47.00
44851;DHT22;30583;48.714;9.386;2023-07-29T15:02:48;27.00;46.90
44851;DHT22;30583;48.714;9.386;2023-07-29T15:05:13;27.40;46.90
44851;DHT22;30583;48.714;9.386;2023-07-29T15:07:39;27.20;46.40
44851;DHT22;30583;48.714;9.386;2023-07-29T15:10:05;27.10;46.90
44851;DHT22;30583;48.714;9.386;2023-07-29T15:12:31;27.60;45.30
44851;DHT22;30583;48.714;9.386;2023-07-29T15:14:57;27.60;46.50
44851;DHT22;30583;48.714;9.386;2023-07-29T15:17:22;27.60;45.90
44851;DHT22;30583;48.714;9.386;2023-07-29T15:19:48;27.10;46.60
44851;DHT22;30583;48.714;9.386;2023-07-29T15:22:16;27.10;47.20
44851;DHT22;30583;48.714;9.386;2023-07-29T15:24:41;27.20;47.10
44851;DHT22;30583;48.714;9.386;2023-07-29T15:27:09;27.20;47.00
44851;DHT22;30583;48.714;9.386;2023-07-29T15:29:35;27.10;46.60
44851;DHT22;30583;48.714;9.386;2023-07-29T15:32:00;26.90;47.40
44851;DHT22;30583;48.714;9.386;2023-07-29T15:34:26;26.60;47.40
44851;DHT22;30583;48.714;9.386;2023-07-29T15:36:57;26.50;48.30
44851;DHT22;30583;48.714;9.386;2023-07-29T15:39:23;27.00;47.70
44851;DHT22;30583;48.714;9.386;2023-07-29T15:41:48;27.00;46.90
44851;DHT22;30583;48.714;9.386;2023-07-29T15:44:14;26.70;47.90
44851;DHT22;30583;48.714;9.386;2023-07-29T15:46:39;27.20;47.40
44851;DHT22;30583;48.714;9.386;2023-07-29T15:49:05;28.00;45.80